Terminal Aerodrome Forecast
Issued by NWS

Home | Current Version | Previous Version | Text Only | Print | Product List | Glossary On
Versions: 1 2 3 4 5 6 7 8 9 10 11 12 13 14 15 16 17 18 19 20 21 22 23 24 25
000
FTUS43 KDTX 121100
TAFPTK
TAF
KPTK 121135Z 1212/1312 VRB03KT P6SM BKN120 BKN200
     FM121500 21010KT P6SM SCT060 BKN150
     FM122300 22008KT P6SM -SHRA SCT040 BKN060 OVC100
     FM130800 24005KT 3SM SHRA SCT008 OVC022 PROB30 1308/1312 1SM
      TSRA BKN008 OVC015CB=

USA.gov is the U.S. government's official web portal to all federal, state and local government web resources and services.